sensor_id;sensor_type;location;lat;lon;timestamp;temperature;humidity
306;DHT22;137;48.578;9.180;2022-10-16T00:00:46;15.80;98.20
306;DHT22;137;48.578;9.180;2022-10-16T00:03:12;15.80;98.20
306;DHT22;137;48.578;9.180;2022-10-16T00:05:42;15.80;98.20
306;DHT22;137;48.578;9.180;2022-10-16T00:08:10;15.80;98.20
306;DHT22;137;48.578;9.180;2022-10-16T00:10:37;15.80;98.20
306;DHT22;137;48.578;9.180;2022-10-16T00:13:05;15.80;98.20
306;DHT22;137;48.578;9.180;2022-10-16T00:15:33;15.80;98.20
306;DHT22;137;48.578;9.180;2022-10-16T00:18:02;15.90;98.20
306;DHT22;137;48.578;9.180;2022-10-16T00:20:29;15.90;98.20
306;DHT22;137;48.578;9.180;2022-10-16T00:22:58;15.80;98.20
306;DHT22;137;48.578;9.180;2022-10-16T00:25:24;15.80;98.20
306;DHT22;137;48.578;9.180;2022-10-16T00:27:51;15.80;98.20
306;DHT22;137;48.578;9.180;2022-10-16T00:30:18;15.70;98.20
306;DHT22;137;48.578;9.180;2022-10-16T00:32:44;15.70;98.20
306;DHT22;137;48.578;9.180;2022-10-16T00:35:11;15.80;98.20
306;DHT22;137;48.578;9.180;2022-10-16T00:37:38;15.70;98.20
306;DHT22;137;48.578;9.180;2022-10-16T00:40:07;15.60;98.20
306;DHT22;137;48.578;9.180;2022-10-16T00:42:34;15.50;98.20
306;DHT22;137;48.578;9.180;2022-10-16T00:45:02;15.40;98.20
306;DHT22;137;48.578;9.180;2022-10-16T00:47:32;15.30;98.20
306;DHT22;137;48.578;9.180;2022-10-16T00:50:04;15.30;98.20
306;DHT22;137;48.578;9.180;2022-10-16T00:52:33;15.20;98.20
306;DHT22;137;48.578;9.180;2022-10-16T00:55:01;15.10;98.20
306;DHT22;137;48.578;9.180;2022-10-16T00:57:30;15.10;98.20
306;DHT22;137;48.578;9.180;2022-10-16T00:59:57;15.00;98.20
306;DHT22;137;48.578;9.180;2022-10-16T01:02:25;15.00;98.20
306;DHT22;137;48.578;9.180;2022-10-16T01:04:53;15.00;98.20
306;DHT22;137;48.578;9.180;2022-10-16T01:07:34;15.10;98.20
306;DHT22;137;48.578;9.180;2022-10-16T01:10:08;15.10;98.20
306;DHT22;137;48.578;9.180;2022-10-16T01:12:42;15.20;98.20
306;DHT22;137;48.578;9.180;2022-10-16T01:15:16;15.20;98.20
306;DHT22;137;48.578;9.180;2022-10-16T01:17:48;15.10;98.20
306;DHT22;137;48.578;9.180;2022-10-16T01:20:22;15.20;98.20
306;DHT22;137;48.578;9.180;2022-10-16T01:23:04;15.20;98.20
306;DHT22;137;48.578;9.180;2022-10-16T01:25:40;15.20;98.20
306;DHT22;137;48.578;9.180;2022-10-16T01:28:14;15.10;98.20
306;DHT22;137;48.578;9.180;2022-10-16T01:30:43;15.10;98.20
306;DHT22;137;48.578;9.180;2022-10-16T01:33:16;15.10;98.20
306;DHT22;137;48.578;9.180;2022-10-16T01:35:46;15.10;98.20
306;DHT22;137;48.578;9.180;2022-10-16T01:38:17;15.10;98.20
306;DHT22;137;48.578;9.180;2022-10-16T01:40:47;15.10;98.20
306;DHT22;137;48.578;9.180;2022-10-16T01:43:19;15.10;98.20
306;DHT22;137;48.578;9.180;2022-10-16T01:45:48;15.20;98.20
306;DHT22;137;48.578;9.180;2022-10-16T01:48:17;15.20;98.20
306;DHT22;137;48.578;9.180;2022-10-16T01:50:50;15.20;98.20
306;DHT22;137;48.578;9.180;2022-10-16T01:53:19;15.20;98.20
306;DHT22;137;48.578;9.180;2022-10-16T01:55:47;15.20;98.20
306;DHT22;137;48.578;9.180;2022-10-16T01:58:16;15.20;98.20
306;DHT22;137;48.578;9.180;2022-10-16T02:00:44;15.30;98.20
306;DHT22;137;48.578;9.180;2022-10-16T02:03:15;15.30;98.20
306;DHT22;137;48.578;9.180;2022-10-16T02:05:46;15.40;98.20
306;DHT22;137;48.578;9.180;2022-10-16T02:08:14;15.40;98.20
306;DHT22;137;48.578;9.180;2022-10-16T02:10:41;15.40;98.20
306;DHT22;137;48.578;9.180;2022-10-16T02:13:10;15.30;98.20
306;DHT22;137;48.578;9.180;2022-10-16T02:15:39;15.30;98.20
306;DHT22;137;48.578;9.180;2022-10-16T02:18:07;15.30;98.20
306;DHT22;137;48.578;9.180;2022-10-16T02:20:42;15.30;98.20
306;DHT22;137;48.578;9.180;2022-10-16T02:23:13;15.40;98.20
306;DHT22;137;48.578;9.180;2022-10-16T02:25:44;15.30;98.20
306;DHT22;137;48.578;9.180;2022-10-16T02:28:16;15.40;98.20
306;DHT22;137;48.578;9.180;2022-10-16T02:30:49;15.40;98.20
306;DHT22;137;48.578;9.180;2022-10-16T02:33:18;15.50;98.20
306;DHT22;137;48.578;9.180;2022-10-16T02:35:48;15.50;98.20
306;DHT22;137;48.578;9.180;2022-10-16T02:38:17;15.60;98.20
306;DHT22;137;48.578;9.180;2022-10-16T02:40:44;15.50;98.20
306;DHT22;137;48.578;9.180;2022-10-16T02:43:11;15.50;98.20
306;DHT22;137;48.578;9.180;2022-10-16T02:45:38;15.40;98.20
306;DHT22;137;48.578;9.180;2022-10-16T02:48:07;15.40;98.20
306;DHT22;137;48.578;9.180;2022-10-16T02:50:34;15.30;98.20
306;DHT22;137;48.578;9.180;2022-10-16T02:53:01;15.30;98.20
306;DHT22;137;48.578;9.180;2022-10-16T02:55:28;15.30;98.20
306;DHT22;137;48.578;9.180;2022-10-16T02:57:55;15.30;98.20
306;DHT22;137;48.578;9.180;2022-10-16T03:00:22;15.30;98.20
306;DHT22;137;48.578;9.180;2022-10-16T03:02:48;15.30;98.20
306;DHT22;137;48.578;9.180;2022-10-16T03:05:17;15.20;98.20
306;DHT22;137;48.578;9.180;2022-10-16T03:07:43;15.20;98.20
306;DHT22;137;48.578;9.180;2022-10-16T03:10:10;15.20;98.20
306;DHT22;137;48.578;9.180;2022-10-16T03:12:37;15.20;98.20
306;DHT22;137;48.578;9.180;2022-10-16T03:15:04;15.20;98.20
306;DHT22;137;48.578;9.180;2022-10-16T03:17:32;15.20;98.20
306;DHT22;137;48.578;9.180;2022-10-16T03:19:59;15.20;98.20
306;DHT22;137;48.578;9.180;2022-10-16T03:22:28;15.30;98.20
306;DHT22;137;48.578;9.180;2022-10-16T03:24:54;15.20;98.20
306;DHT22;137;48.578;9.180;2022-10-16T03:27:22;15.20;98.20
306;DHT22;137;48.578;9.180;2022-10-16T03:29:48;15.30;98.20
306;DHT22;137;48.578;9.180;2022-10-16T03:32:15;15.30;98.20
306;DHT22;137;48.578;9.180;2022-10-16T03:34:42;15.30;98.20
306;DHT22;137;48.578;9.180;2022-10-16T03:37:09;15.20;98.20
306;DHT22;137;48.578;9.180;2022-10-16T03:39:37;15.30;98.20
306;DHT22;137;48.578;9.180;2022-10-16T03:42:04;15.20;98.20
306;DHT22;137;48.578;9.180;2022-10-16T03:44:31;15.20;98.20
306;DHT22;137;48.578;9.180;2022-10-16T03:46:57;15.20;98.20
306;DHT22;137;48.578;9.180;2022-10-16T03:49:24;15.20;98.20
306;DHT22;137;48.578;9.180;2022-10-16T03:51:51;15.20;98.20
306;DHT22;137;48.578;9.180;2022-10-16T03:54:17;15.20;98.20
306;DHT22;137;48.578;9.180;2022-10-16T03:56:46;15.20;98.20
306;DHT22;137;48.578;9.180;2022-10-16T03:59:12;15.30;98.20
306;DHT22;137;48.578;9.180;2022-10-16T04:01:39;15.30;98.20
306;DHT22;137;48.578;9.180;2022-10-16T04:04:06;15.30;98.20
306;DHT22;137;48.578;9.180;2022-10-16T04:06:33;15.30;98.20
306;DHT22;137;48.578;9.180;2022-10-16T04:08:59;15.30;98.20
306;DHT22;137;48.578;9.180;2022-10-16T04:11:26;15.30;98.20
306;DHT22;137;48.578;9.180;2022-10-16T04:13:55;15.30;98.20
306;DHT22;137;48.578;9.180;2022-10-16T04:16:22;15.30;98.20
306;DHT22;137;48.578;9.180;2022-10-16T04:18:48;15.30;98.20
306;DHT22;137;48.578;9.180;2022-10-16T04:21:15;15.30;98.20
306;DHT22;137;48.578;9.180;2022-10-16T04:23:42;15.30;98.20
306;DHT22;137;48.578;9.180;2022-10-16T04:26:09;15.30;98.20
306;DHT22;137;48.578;9.180;2022-10-16T04:28:36;15.30;98.20
306;DHT22;137;48.578;9.180;2022-10-16T04:31:05;15.30;98.20
306;DHT22;137;48.578;9.180;2022-10-16T04:33:32;15.30;98.20
306;DHT22;137;48.578;9.180;2022-10-16T04:36:00;15.30;98.20
306;DHT22;137;48.578;9.180;2022-10-16T04:38:27;15.30;98.20
306;DHT22;137;48.578;9.180;2022-10-16T04:40:54;15.30;98.20
306;DHT22;137;48.578;9.180;2022-10-16T04:43:21;15.30;98.20
306;DHT22;137;48.578;9.180;2022-10-16T04:45:48;15.30;98.20
306;DHT22;137;48.578;9.180;2022-10-16T04:48:17;15.30;98.20
306;DHT22;137;48.578;9.180;2022-10-16T04:50:44;15.20;98.20
306;DHT22;137;48.578;9.180;2022-10-16T04:53:11;15.30;98.20
306;DHT22;137;48.578;9.180;2022-10-16T04:55:37;15.30;98.20
306;DHT22;137;48.578;9.180;2022-10-16T04:58:04;15.20;98.20
306;DHT22;137;48.578;9.180;2022-10-16T05:00:31;15.20;98.20
306;DHT22;137;48.578;9.180;2022-10-16T05:02:58;15.20;98.20
306;DHT22;137;48.578;9.180;2022-10-16T05:05:27;15.30;98.20
306;DHT22;137;48.578;9.180;2022-10-16T05:07:54;15.30;98.20
306;DHT22;137;48.578;9.180;2022-10-16T05:10:21;15.30;98.20
306;DHT22;137;48.578;9.180;2022-10-16T05:12:48;15.20;98.20
306;DHT22;137;48.578;9.180;2022-10-16T05:15:15;15.20;98.20
306;DHT22;137;48.578;9.180;2022-10-16T05:17:42;15.20;98.20
306;DHT22;137;48.578;9.180;2022-10-16T05:20:09;15.20;98.20
306;DHT22;137;48.578;9.180;2022-10-16T05:22:37;15.10;98.20
306;DHT22;137;48.578;9.180;2022-10-16T05:25:04;15.10;98.20
306;DHT22;137;48.578;9.180;2022-10-16T05:27:31;15.00;98.20
306;DHT22;137;48.578;9.180;2022-10-16T05:29:58;15.00;98.20
306;DHT22;137;48.578;9.180;2022-10-16T05:32:25;15.00;98.20
306;DHT22;137;48.578;9.180;2022-10-16T05:34:52;14.90;98.20
306;DHT22;137;48.578;9.180;2022-10-16T05:37:18;14.80;98.20
306;DHT22;137;48.578;9.180;2022-10-16T05:39:46;14.80;98.20
306;DHT22;137;48.578;9.180;2022-10-16T05:42:13;14.80;98.20
306;DHT22;137;48.578;9.180;2022-10-16T05:44:41;14.80;98.20
306;DHT22;137;48.578;9.180;2022-10-16T05:47:07;14.80;98.20
306;DHT22;137;48.578;9.180;2022-10-16T05:49:34;14.80;98.20
306;DHT22;137;48.578;9.180;2022-10-16T05:52:01;14.80;98.20
306;DHT22;137;48.578;9.180;2022-10-16T05:54:27;14.90;98.20
306;DHT22;137;48.578;9.180;2022-10-16T05:56:56;14.80;98.20
306;DHT22;137;48.578;9.180;2022-10-16T05:59:22;14.80;98.20
306;DHT22;137;48.578;9.180;2022-10-16T06:01:49;14.90;98.20
306;DHT22;137;48.578;9.180;2022-10-16T06:04:16;15.00;98.20
306;DHT22;137;48.578;9.180;2022-10-16T06:06:43;15.00;98.20
306;DHT22;137;48.578;9.180;2022-10-16T06:09:10;15.10;98.20
306;DHT22;137;48.578;9.180;2022-10-16T06:11:36;15.10;98.20
306;DHT22;137;48.578;9.180;2022-10-16T06:14:04;15.10;98.20
306;DHT22;137;48.578;9.180;2022-10-16T06:16:33;15.20;98.20
306;DHT22;137;48.578;9.180;2022-10-16T06:19:00;15.20;98.20
306;DHT22;137;48.578;9.180;2022-10-16T06:21:28;15.30;98.20
306;DHT22;137;48.578;9.180;2022-10-16T06:23:56;15.30;98.20
306;DHT22;137;48.578;9.180;2022-10-16T06:26:25;15.40;98.20
306;DHT22;137;48.578;9.180;2022-10-16T06:28:53;15.40;98.20
306;DHT22;137;48.578;9.180;2022-10-16T06:31:22;15.40;98.20
306;DHT22;137;48.578;9.180;2022-10-16T06:33:53;15.50;98.20
306;DHT22;137;48.578;9.180;2022-10-16T06:36:20;15.60;98.20
306;DHT22;137;48.578;9.180;2022-10-16T06:38:47;15.70;98.20
306;DHT22;137;48.578;9.180;2022-10-16T06:41:16;15.80;98.20
306;DHT22;137;48.578;9.180;2022-10-16T06:43:43;16.00;98.20
306;DHT22;137;48.578;9.180;2022-10-16T06:46:12;16.20;98.20
306;DHT22;137;48.578;9.180;2022-10-16T06:48:40;16.30;98.20
306;DHT22;137;48.578;9.180;2022-10-16T06:51:10;16.40;98.20
306;DHT22;137;48.578;9.180;2022-10-16T06:53:39;16.50;98.20
306;DHT22;137;48.578;9.180;2022-10-16T06:56:09;16.60;98.20
306;DHT22;137;48.578;9.180;2022-10-16T06:58:35;16.70;98.20
306;DHT22;137;48.578;9.180;2022-10-16T07:01:03;16.70;98.20
306;DHT22;137;48.578;9.180;2022-10-16T07:03:30;16.80;98.20
306;DHT22;137;48.578;9.180;2022-10-16T07:06:01;16.80;98.20
306;DHT22;137;48.578;9.180;2022-10-16T07:08:30;16.90;98.20
306;DHT22;137;48.578;9.180;2022-10-16T07:11:01;16.90;98.20
306;DHT22;137;48.578;9.180;2022-10-16T07:13:28;17.00;98.20
306;DHT22;137;48.578;9.180;2022-10-16T07:15:55;17.10;98.20
306;DHT22;137;48.578;9.180;2022-10-16T07:18:22;17.20;98.20
306;DHT22;137;48.578;9.180;2022-10-16T07:20:52;17.30;98.20
306;DHT22;137;48.578;9.180;2022-10-16T07:23:20;17.30;98.20
306;DHT22;137;48.578;9.180;2022-10-16T07:25:53;17.30;98.20
306;DHT22;137;48.578;9.180;2022-10-16T07:28:21;17.30;98.20
306;DHT22;137;48.578;9.180;2022-10-16T07:30:48;17.40;98.20
306;DHT22;137;48.578;9.180;2022-10-16T07:33:15;17.40;98.20
306;DHT22;137;48.578;9.180;2022-10-16T07:35:48;17.40;98.20
306;DHT22;137;48.578;9.180;2022-10-16T07:38:15;17.40;98.20
306;DHT22;137;48.578;9.180;2022-10-16T07:40:43;17.50;98.20
306;DHT22;137;48.578;9.180;2022-10-16T07:43:10;17.50;98.20
306;DHT22;137;48.578;9.180;2022-10-16T07:45:37;17.60;98.20
306;DHT22;137;48.578;9.180;2022-10-16T07:48:12;17.60;98.20
306;DHT22;137;48.578;9.180;2022-10-16T07:50:39;17.70;98.20
306;DHT22;137;48.578;9.180;2022-10-16T07:53:06;17.80;98.20
306;DHT22;137;48.578;9.180;2022-10-16T07:55:32;17.90;98.20
306;DHT22;137;48.578;9.180;2022-10-16T07:58:00;18.00;98.20
306;DHT22;137;48.578;9.180;2022-10-16T08:00:27;18.10;98.20
306;DHT22;137;48.578;9.180;2022-10-16T08:02:54;18.30;98.20
306;DHT22;137;48.578;9.180;2022-10-16T08:05:22;18.30;98.20
306;DHT22;137;48.578;9.180;2022-10-16T08:07:49;18.30;98.20
306;DHT22;137;48.578;9.180;2022-10-16T08:10:18;18.30;98.20
306;DHT22;137;48.578;9.180;2022-10-16T08:12:45;18.30;98.20
306;DHT22;137;48.578;9.180;2022-10-16T08:15:13;18.40;98.20
306;DHT22;137;48.578;9.180;2022-10-16T08:17:40;18.50;98.20
306;DHT22;137;48.578;9.180;2022-10-16T08:20:08;18.50;98.20
306;DHT22;137;48.578;9.180;2022-10-16T08:22:35;18.70;98.20
306;DHT22;137;48.578;9.180;2022-10-16T08:25:01;18.70;98.20
306;DHT22;137;48.578;9.180;2022-10-16T08:27:31;18.90;98.20
306;DHT22;137;48.578;9.180;2022-10-16T08:29:58;19.10;98.20
306;DHT22;137;48.578;9.180;2022-10-16T08:32:26;19.40;98.20
306;DHT22;137;48.578;9.180;2022-10-16T08:34:52;19.70;98.20
306;DHT22;137;48.578;9.180;2022-10-16T08:37:19;19.90;98.20
306;DHT22;137;48.578;9.180;2022-10-16T08:39:46;20.20;98.20
306;DHT22;137;48.578;9.180;2022-10-16T08:42:27;20.30;98.20
306;DHT22;137;48.578;9.180;2022-10-16T08:45:22;20.20;98.20
306;DHT22;137;48.578;9.180;2022-10-16T08:48:04;20.10;98.20
306;DHT22;137;48.578;9.180;2022-10-16T08:50:38;20.00;98.20
306;DHT22;137;48.578;9.180;2022-10-16T08:53:05;20.00;98.20
306;DHT22;137;48.578;9.180;2022-10-16T08:55:38;20.00;98.20
306;DHT22;137;48.578;9.180;2022-10-16T08:58:15;20.00;98.20
306;DHT22;137;48.578;9.180;2022-10-16T09:00:44;19.90;98.20
306;DHT22;137;48.578;9.180;2022-10-16T09:03:21;19.90;98.20
306;DHT22;137;48.578;9.180;2022-10-16T09:06:01;20.00;98.20
306;DHT22;137;48.578;9.180;2022-10-16T09:08:36;20.10;98.20
306;DHT22;137;48.578;9.180;2022-10-16T09:11:11;20.10;98.20
306;DHT22;137;48.578;9.180;2022-10-16T09:13:48;20.20;98.20
306;DHT22;137;48.578;9.180;2022-10-16T09:16:19;20.20;98.20
306;DHT22;137;48.578;9.180;2022-10-16T09:18:55;20.30;98.20
306;DHT22;137;48.578;9.180;2022-10-16T09:21:25;20.40;98.20
306;DHT22;137;48.578;9.180;2022-10-16T09:23:54;20.60;98.20
306;DHT22;137;48.578;9.180;2022-10-16T09:26:23;20.80;98.20
306;DHT22;137;48.578;9.180;2022-10-16T09:28:52;21.10;98.20
306;DHT22;137;48.578;9.180;2022-10-16T09:31:20;21.50;98.20
306;DHT22;137;48.578;9.180;2022-10-16T09:33:53;21.90;98.20
306;DHT22;137;48.578;9.180;2022-10-16T09:36:23;22.10;98.20
306;DHT22;137;48.578;9.180;2022-10-16T09:39:02;22.40;98.20
306;DHT22;137;48.578;9.180;2022-10-16T09:41:29;22.50;98.20
306;DHT22;137;48.578;9.180;2022-10-16T09:43:57;22.30;98.20
306;DHT22;137;48.578;9.180;2022-10-16T09:46:27;22.30;98.20
306;DHT22;137;48.578;9.180;2022-10-16T09:48:57;22.30;98.20
306;DHT22;137;48.578;9.180;2022-10-16T09:51:26;22.30;98.20
306;DHT22;137;48.578;9.180;2022-10-16T09:53:58;22.40;98.20
306;DHT22;137;48.578;9.180;2022-10-16T09:56:26;22.40;98.20
306;DHT22;137;48.578;9.180;2022-10-16T09:58:55;22.30;98.20
306;DHT22;137;48.578;9.180;2022-10-16T10:01:26;22.20;98.20
306;DHT22;137;48.578;9.180;2022-10-16T10:03:57;22.00;98.20
306;DHT22;137;48.578;9.180;2022-10-16T10:06:28;22.00;98.20
306;DHT22;137;48.578;9.180;2022-10-16T10:08:58;22.40;98.20
306;DHT22;137;48.578;9.180;2022-10-16T10:11:47;22.30;98.20
306;DHT22;137;48.578;9.180;2022-10-16T10:14:23;22.60;98.20
306;DHT22;137;48.578;9.180;2022-10-16T10:16:51;23.10;98.20
306;DHT22;137;48.578;9.180;2022-10-16T10:19:21;23.10;98.20
306;DHT22;137;48.578;9.180;2022-10-16T10:21:50;23.10;98.20
306;DHT22;137;48.578;9.180;2022-10-16T10:24:18;23.10;98.20
306;DHT22;137;48.578;9.180;2022-10-16T10:26:54;23.30;98.20
306;DHT22;137;48.578;9.180;2022-10-16T10:29:37;23.40;98.20
306;DHT22;137;48.578;9.180;2022-10-16T10:32:17;23.30;98.20
306;DHT22;137;48.578;9.180;2022-10-16T10:35:03;23.20;98.20
306;DHT22;137;48.578;9.180;2022-10-16T10:37:49;23.10;98.20
306;DHT22;137;48.578;9.180;2022-10-16T10:40:36;23.00;98.20
306;DHT22;137;48.578;9.180;2022-10-16T10:43:10;23.30;98.20
306;DHT22;137;48.578;9.180;2022-10-16T10:45:43;23.70;98.20
306;DHT22;137;48.578;9.180;2022-10-16T10:48:23;24.00;98.20
306;DHT22;137;48.578;9.180;2022-10-16T10:50:57;24.00;98.20
306;DHT22;137;48.578;9.180;2022-10-16T10:53:38;23.90;98.20
306;DHT22;137;48.578;9.180;2022-10-16T10:56:19;24.10;98.20
306;DHT22;137;48.578;9.180;2022-10-16T10:59:09;24.30;98.20
306;DHT22;137;48.578;9.180;2022-10-16T11:01:48;24.40;98.20
306;DHT22;137;48.578;9.180;2022-10-16T11:04:34;24.40;98.20
306;DHT22;137;48.578;9.180;2022-10-16T11:07:10;24.60;98.20
306;DHT22;137;48.578;9.180;2022-10-16T11:09:42;24.30;98.20
306;DHT22;137;48.578;9.180;2022-10-16T11:12:14;24.30;98.20
306;DHT22;137;48.578;9.180;2022-10-16T11:14:46;24.30;98.20
306;DHT22;137;48.578;9.180;2022-10-16T11:17:19;24.50;98.20
306;DHT22;137;48.578;9.180;2022-10-16T11:19:54;24.60;98.20
306;DHT22;137;48.578;9.180;2022-10-16T11:22:27;24.60;98.20
306;DHT22;137;48.578;9.180;2022-10-16T11:25:01;24.80;98.20
306;DHT22;137;48.578;9.180;2022-10-16T11:27:36;25.10;98.20
306;DHT22;137;48.578;9.180;2022-10-16T11:30:06;25.40;98.20
306;DHT22;137;48.578;9.180;2022-10-16T11:32:52;25.60;98.20
306;DHT22;137;48.578;9.180;2022-10-16T11:35:25;25.80;98.20
306;DHT22;137;48.578;9.180;2022-10-16T11:38:03;25.70;98.20
306;DHT22;137;48.578;9.180;2022-10-16T11:40:34;25.80;98.20
306;DHT22;137;48.578;9.180;2022-10-16T11:43:12;25.80;98.20
306;DHT22;137;48.578;9.180;2022-10-16T11:45:43;25.80;98.20
306;DHT22;137;48.578;9.180;2022-10-16T11:48:20;25.70;98.20
306;DHT22;137;48.578;9.180;2022-10-16T11:50:53;25.80;98.20
306;DHT22;137;48.578;9.180;2022-10-16T11:53:33;25.80;98.20
306;DHT22;137;48.578;9.180;2022-10-16T11:56:02;25.40;98.20
306;DHT22;137;48.578;9.180;2022-10-16T11:58:32;25.50;98.20
306;DHT22;137;48.578;9.180;2022-10-16T12:01:12;25.50;98.20
306;DHT22;137;48.578;9.180;2022-10-16T12:03:45;25.50;98.20
306;DHT22;137;48.578;9.180;2022-10-16T12:06:23;25.60;98.20
306;DHT22;137;48.578;9.180;2022-10-16T12:08:54;25.60;98.20
306;DHT22;137;48.578;9.180;2022-10-16T12:11:33;25.60;98.20
306;DHT22;137;48.578;9.180;2022-10-16T12:14:18;25.70;98.20
306;DHT22;137;48.578;9.180;2022-10-16T12:16:53;25.60;98.20
306;DHT22;137;48.578;9.180;2022-10-16T12:19:22;25.70;98.20
306;DHT22;137;48.578;9.180;2022-10-16T12:21:50;25.70;98.20
306;DHT22;137;48.578;9.180;2022-10-16T12:24:30;25.70;98.20
306;DHT22;137;48.578;9.180;2022-10-16T12:26:57;25.70;98.20
306;DHT22;137;48.578;9.180;2022-10-16T12:29:33;25.70;98.20
306;DHT22;137;48.578;9.180;2022-10-16T12:32:01;25.70;98.20
306;DHT22;137;48.578;9.180;2022-10-16T12:34:32;25.40;98.20
306;DHT22;137;48.578;9.180;2022-10-16T12:37:18;25.40;98.20
306;DHT22;137;48.578;9.180;2022-10-16T12:39:47;25.50;98.20
306;DHT22;137;48.578;9.180;2022-10-16T12:42:32;25.10;98.20
306;DHT22;137;48.578;9.180;2022-10-16T12:45:00;24.90;98.20
306;DHT22;137;48.578;9.180;2022-10-16T12:47:38;24.80;98.20
306;DHT22;137;48.578;9.180;2022-10-16T12:50:31;25.00;98.20
306;DHT22;137;48.578;9.180;2022-10-16T12:53:00;25.20;98.20
306;DHT22;137;48.578;9.180;2022-10-16T12:55:35;25.60;98.20
306;DHT22;137;48.578;9.180;2022-10-16T13:01:06;26.10;98.20
306;DHT22;137;48.578;9.180;2022-10-16T13:03:51;26.60;98.20
306;DHT22;137;48.578;9.180;2022-10-16T13:06:26;26.60;98.20
306;DHT22;137;48.578;9.180;2022-10-16T13:09:17;26.70;98.20
306;DHT22;137;48.578;9.180;2022-10-16T13:12:05;27.00;98.20
306;DHT22;137;48.578;9.180;2022-10-16T13:14:47;26.90;98.20
306;DHT22;137;48.578;9.180;2022-10-16T13:17:20;26.70;98.20
306;DHT22;137;48.578;9.180;2022-10-16T13:19:54;26.70;98.20
306;DHT22;137;48.578;9.180;2022-10-16T13:22:31;26.50;98.20
306;DHT22;137;48.578;9.180;2022-10-16T13:25:10;26.30;98.20
306;DHT22;137;48.578;9.180;2022-10-16T13:27:51;26.00;98.20
306;DHT22;137;48.578;9.180;2022-10-16T13:30:22;25.70;98.20
306;DHT22;137;48.578;9.180;2022-10-16T13:32:57;25.50;98.20
306;DHT22;137;48.578;9.180;2022-10-16T13:35:26;25.30;98.20
306;DHT22;137;48.578;9.180;2022-10-16T13:38:11;25.30;98.20
306;DHT22;137;48.578;9.180;2022-10-16T13:40:52;25.30;98.20
306;DHT22;137;48.578;9.180;2022-10-16T13:43:23;25.30;98.20
306;DHT22;137;48.578;9.180;2022-10-16T13:45:59;25.30;98.20
306;DHT22;137;48.578;9.180;2022-10-16T13:48:26;25.40;98.20
306;DHT22;137;48.578;9.180;2022-10-16T13:51:05;25.30;98.20
306;DHT22;137;48.578;9.180;2022-10-16T13:53:33;25.30;98.20
306;DHT22;137;48.578;9.180;2022-10-16T13:56:03;25.20;98.20
306;DHT22;137;48.578;9.180;2022-10-16T13:58:32;25.20;98.20
306;DHT22;137;48.578;9.180;2022-10-16T14:01:00;25.20;98.20
306;DHT22;137;48.578;9.180;2022-10-16T14:03:28;25.40;98.20
306;DHT22;137;48.578;9.180;2022-10-16T14:05:58;25.60;98.20
306;DHT22;137;48.578;9.180;2022-10-16T14:08:26;25.60;98.20
306;DHT22;137;48.578;9.180;2022-10-16T14:10:55;25.60;98.20
306;DHT22;137;48.578;9.180;2022-10-16T14:13:34;25.60;98.20
306;DHT22;137;48.578;9.180;2022-10-16T14:16:07;25.60;98.20
306;DHT22;137;48.578;9.180;2022-10-16T14:18:35;25.60;98.20
306;DHT22;137;48.578;9.180;2022-10-16T14:21:04;25.40;98.20
306;DHT22;137;48.578;9.180;2022-10-16T14:23:35;25.50;98.20
306;DHT22;137;48.578;9.180;2022-10-16T14:26:16;25.50;98.20
306;DHT22;137;48.578;9.180;2022-10-16T14:28:46;25.40;98.20
306;DHT22;137;48.578;9.180;2022-10-16T14:31:26;25.40;98.20
306;DHT22;137;48.578;9.180;2022-10-16T14:33:53;25.20;98.20
306;DHT22;137;48.578;9.180;2022-10-16T14:36:21;25.20;98.20
306;DHT22;137;48.578;9.180;2022-10-16T14:38:56;25.10;98.20
306;DHT22;137;48.578;9.180;2022-10-16T14:41:24;25.10;98.20
306;DHT22;137;48.578;9.180;2022-10-16T14:43:53;25.20;98.20
306;DHT22;137;48.578;9.180;2022-10-16T14:46:22;25.10;98.20
306;DHT22;137;48.578;9.180;2022-10-16T14:48:58;25.10;98.20
306;DHT22;137;48.578;9.180;2022-10-16T14:51:26;25.00;98.20
306;DHT22;137;48.578;9.180;2022-10-16T14:53:53;25.00;98.20
306;DHT22;137;48.578;9.180;2022-10-16T14:56:22;24.90;98.20
306;DHT22;137;48.578;9.180;2022-10-16T14:58:51;24.90;98.20
306;DHT22;137;48.578;9.180;2022-10-16T15:01:19;24.80;98.20
306;DHT22;137;48.578;9.180;2022-10-16T15:03:46;24.70;98.20
306;DHT22;137;48.578;9.180;2022-10-16T15:06:14;24.70;98.20
306;DHT22;137;48.578;9.180;2022-10-16T15:08:42;24.60;98.20
306;DHT22;137;48.578;9.180;2022-10-16T15:11:11;24.60;98.20
306;DHT22;137;48.578;9.180;2022-10-16T15:13:39;24.50;98.20
306;DHT22;137;48.578;9.180;2022-10-16T15:16:10;24.40;98.20
306;DHT22;137;48.578;9.180;2022-10-16T15:18:37;24.30;98.20
306;DHT22;137;48.578;9.180;2022-10-16T15:21:04;24.20;98.20
306;DHT22;137;48.578;9.180;2022-10-16T15:23:31;24.10;98.20
306;DHT22;137;48.578;9.180;2022-10-16T15:25:58;24.00;98.20
306;DHT22;137;48.578;9.180;2022-10-16T15:28:25;23.90;98.20
306;DHT22;137;48.578;9.180;2022-10-16T15:30:53;23.80;98.20
306;DHT22;137;48.578;9.180;2022-10-16T15:33:23;23.80;98.20
306;DHT22;137;48.578;9.180;2022-10-16T15:35:52;23.80;98.20
306;DHT22;137;48.578;9.180;2022-10-16T15:38:21;23.70;98.20
306;DHT22;137;48.578;9.180;2022-10-16T15:40:48;23.70;98.20
306;DHT22;137;48.578;9.180;2022-10-16T15:43:15;23.60;98.20
306;DHT22;137;48.578;9.180;2022-10-16T15:45:43;23.50;98.20
306;DHT22;137;48.578;9.180;2022-10-16T15:48:11;23.50;98.20
306;DHT22;137;48.578;9.180;2022-10-16T15:50:40;23.50;98.20
306;DHT22;137;48.578;9.180;2022-10-16T15:53:07;23.40;98.20
306;DHT22;137;48.578;9.180;2022-10-16T15:55:34;23.20;98.20
306;DHT22;137;48.578;9.180;2022-10-16T15:58:03;23.10;98.20
306;DHT22;137;48.578;9.180;2022-10-16T16:00:31;22.90;98.20
306;DHT22;137;48.578;9.180;2022-10-16T16:02:57;22.80;98.20
306;DHT22;137;48.578;9.180;2022-10-16T16:05:24;22.60;98.20
306;DHT22;137;48.578;9.180;2022-10-16T16:07:54;22.40;98.20
306;DHT22;137;48.578;9.180;2022-10-16T16:10:21;22.20;98.20
306;DHT22;137;48.578;9.180;2022-10-16T16:12:48;22.00;98.20
306;DHT22;137;48.578;9.180;2022-10-16T16:15:18;21.90;98.20
306;DHT22;137;48.578;9.180;2022-10-16T16:17:45;21.80;98.20
306;DHT22;137;48.578;9.180;2022-10-16T16:20:12;21.70;98.20
306;DHT22;137;48.578;9.180;2022-10-16T16:22:39;21.60;98.20
306;DHT22;137;48.578;9.180;2022-10-16T16:25:08;21.40;98.20
306;DHT22;137;48.578;9.180;2022-10-16T16:27:35;21.30;98.20
306;DHT22;137;48.578;9.180;2022-10-16T16:30:04;21.20;98.20
306;DHT22;137;48.578;9.180;2022-10-16T16:32:32;21.10;98.20
306;DHT22;137;48.578;9.180;2022-10-16T16:34:59;21.00;98.20
306;DHT22;137;48.578;9.180;2022-10-16T16:37:27;21.00;98.20
306;DHT22;137;48.578;9.180;2022-10-16T16:39:54;20.80;98.20
306;DHT22;137;48.578;9.180;2022-10-16T16:42:25;20.80;98.20
306;DHT22;137;48.578;9.180;2022-10-16T16:44:52;20.80;98.20
306;DHT22;137;48.578;9.180;2022-10-16T16:47:19;20.70;98.20
306;DHT22;137;48.578;9.180;2022-10-16T16:49:45;20.70;98.20
306;DHT22;137;48.578;9.180;2022-10-16T16:52:13;20.70;98.20
306;DHT22;137;48.578;9.180;2022-10-16T16:54:40;20.70;98.20
306;DHT22;137;48.578;9.180;2022-10-16T16:57:07;20.70;98.20